Accueil
METAR-TAF:

METAR-TAF

Aéroports :

Aéroport international Angoulême-Cognac

Angoulême, France

latitude: 45-43-46N, longitude: 00-13-08E, altitude: 132 m

Observation

Le bulletin a été fait il y a 41 minutes, à 13:30 UTC
Vent 11 kt de nord-est
Température 8°C
Humidité 66%
Pression 1026 hPa
Visibilité 10 km ou plus
pluie faible

METAR: LFBU 221330Z AUTO 04011KT 9999 -RA NSC 08/02 Q1026 NOSIG

Heure: 15:11 (14:11 UTC)

Prévision

Le bulletin a été fait il y a 3 heures et 11 minutes, à 11:00 UTC
Prévision valable du 22 à 12 UTC au 23 à 12 UTC
Vent 10 kt de nord-est
Visibilité 10 km ou plus
pas de nuages en-dessous de 1500 mètres et pas de cumulonimbus.
Probabilité 40% :
Temporairement
du 22 à 18 UTC au 22 à 20 UTC
Visibilité: 4000 m
pluie faible

TAF: LFBU 221100Z 2212/2312 05010KT CAVOK PROB40 TEMPO 2218/2220 4000 -RA

Observations et prévisions météorologiques de plus de 4000 aéroports (messages METAR et TAF).

Les stations disponibles sont représentées par des disques jaunes et rouges sur la carte.

Passer la souris dessus pour voir le nom de la station.

Cliquer dessus pour voir les observations et prévisions météorologiques.

Pour changer de carte: cliquez sur les boutons verts avec une croix noire pour zoomer, sur le bouton vert avec un tiret pour effectuer un zoom arrière, ou sur les flèches vertes pour les cartes adjacentes.


METAR-TAF: